Time;durP1;ratioP1;P1;durP2;ratioP2;P2;SDS_P1;SDS_P2;PMS_P1;PMS_P2;Temp;Humidity;BMP_temperature;BMP_pressure;BME280_temperature;BME280_humidity;BME280_pressure;Samples;Min_cycle;Max_cycle;Signal;HPM_P1;HPM_P2
2022/01/23 00:00:34;;;;;;;58.80;28.05;;;2.10;65.40;;;;;;5045209;28;20029;-71
2022/01/23 00:03:05;;;;;;;55.45;26.58;;;2.20;64.90;;;;;;5012171;28;20030;-71
2022/01/23 00:05:37;;;;;;;59.30;28.52;;;2.20;65.40;;;;;;5013846;28;20038;-72
2022/01/23 00:08:05;;;;;;;55.55;28.73;;;2.10;65.60;;;;;;5027613;28;20041;-71
2022/01/23 00:10:33;;;;;;;57.50;28.02;;;2.10;65.10;;;;;;5027837;28;20034;-72
2022/01/23 00:18:36;;;;;;;60.00;29.13;;;2.10;65.70;;;;;;5016767;28;20040;-72
2022/01/23 00:21:03;;;;;;;61.75;31.00;;;2.10;65.60;;;;;;5034418;28;20462;-71
2022/01/23 00:30:18;;;;;;;61.05;30.98;;;2.00;65.10;;;;;;5022707;28;20042;-72
2022/01/23 00:31:47;;;;;;;60.40;28.40;;;2.00;66.00;;;;;;5028347;28;20045;-72
2022/01/23 00:34:13;;;;;;;59.05;28.77;;;2.00;65.90;;;;;;5028344;28;20517;-71
2022/01/23 00:36:40;;;;;;;60.15;28.95;;;2.00;65.90;;;;;;5018734;28;20033;-71
2022/01/23 00:39:06;;;;;;;53.10;26.55;;;2.10;65.90;;;;;;5014719;28;20041;-71
2022/01/23 00:41:32;;;;;;;54.47;26.65;;;2.10;65.90;;;;;;5043477;28;20072;-72
2022/01/23 00:43:58;;;;;;;44.67;22.70;;;2.00;65.90;;;;;;5029054;28;20038;-71
2022/01/23 00:46:32;;;;;;;37.90;19.35;;;2.00;66.00;;;;;;5012124;28;20030;-71
2022/01/23 00:51:45;;;;;;;42.90;20.33;;;1.80;66.20;;;;;;5039418;28;20410;-72
2022/01/23 00:54:12;;;;;;;93.80;36.50;;;1.80;66.40;;;;;;5028593;28;20530;-72
2022/01/23 00:56:38;;;;;;;35.85;17.05;;;1.80;66.50;;;;;;5020910;28;20125;-71
2022/01/23 00:59:05;;;;;;;34.58;18.63;;;1.80;66.50;;;;;;5011299;28;20045;-71
2022/01/23 01:01:32;;;;;;;37.97;18.55;;;1.70;65.90;;;;;;5028199;28;20033;-71
2022/01/23 01:03:58;;;;;;;39.85;21.45;;;1.70;65.90;;;;;;5027549;28;20061;-72
2022/01/23 01:06:24;;;;;;;47.75;23.42;;;1.70;66.50;;;;;;5026002;28;20033;-72
2022/01/23 01:08:53;;;;;;;32.40;15.80;;;1.80;66.50;;;;;;5028981;28;20033;-72
2022/01/23 01:16:55;;;;;;;25.10;11.65;;;1.80;66.30;;;;;;5014406;28;20245;-72
2022/01/23 01:33:35;;;;;;;27.92;12.10;;;1.90;66.10;;;;;;5010983;28;20053;-71
2022/01/23 01:36:18;;;;;;;23.98;12.77;;;1.80;66.00;;;;;;5011331;28;20056;-72
2022/01/23 01:38:46;;;;;;;26.40;13.23;;;1.90;66.00;;;;;;5025331;28;20054;-71
2022/01/23 01:41:14;;;;;;;24.42;13.00;;;1.80;66.10;;;;;;5033689;28;20225;-71
2022/01/23 01:43:41;;;;;;;26.70;12.60;;;1.80;66.30;;;;;;5027758;28;20111;-71
2022/01/23 01:46:07;;;;;;;24.77;13.15;;;1.80;66.50;;;;;;5021468;28;20038;-72
2022/01/23 01:48:33;;;;;;;;;;;1.80;66.80;;;;;;5018219;28;20049;-72
2022/01/23 01:51:00;;;;;;;25.13;12.27;;;1.70;66.70;;;;;;5026867;28;19917;-71
2022/01/23 01:53:26;;;;;;;25.17;11.75;;;1.70;66.80;;;;;;5020550;28;20125;-71
2022/01/23 01:55:56;;;;;;;24.23;12.65;;;1.60;66.60;;;;;;5015075;28;20042;-72
2022/01/23 02:02:45;;;;;;;23.80;12.60;;;1.60;66.20;;;;;;5035077;28;20156;-72
2022/01/23 02:09:40;;;;;;;25.75;12.93;;;1.70;66.80;;;;;;5011756;28;20040;-72
2022/01/23 02:17:21;;;;;;;25.25;13.25;;;1.70;66.50;;;;;;5025946;28;20040;-72
2022/01/23 02:55:20;;;;;;;37.10;19.15;;;1.40;67.70;;;;;;5022593;28;20064;-71
2022/01/23 03:00:17;;;;;;;26.45;13.63;;;1.30;68.00;;;;;;5010648;28;20096;-71
2022/01/23 03:02:46;;;;;;;28.15;14.90;;;1.30;67.80;;;;;;5025870;28;20061;-73
2022/01/23 03:05:24;;;;;;;38.75;18.75;;;1.30;67.80;;;;;;5011966;28;21081;-71
2022/01/23 03:10:36;;;;;;;31.33;16.40;;;1.40;67.60;;;;;;5020624;28;20038;-71
2022/01/23 03:16:16;;;;;;;29.83;14.25;;;1.40;67.40;;;;;;5009506;28;20541;-71
2022/01/23 03:27:25;;;;;;;32.72;14.35;;;1.30;67.70;;;;;;5024750;28;20050;-71
2022/01/23 03:30:15;;;;;;;28.33;13.85;;;1.30;67.70;;;;;;5026689;28;20449;-72
2022/01/23 03:32:46;;;;;;;26.75;13.05;;;1.30;67.80;;;;;;5009801;28;20129;-72
2022/01/23 03:35:13;;;;;;;25.90;13.18;;;1.30;67.50;;;;;;5025367;28;20048;-71
2022/01/23 03:37:40;;;;;;;25.92;13.02;;;1.40;67.30;;;;;;5009570;28;20030;-72
2022/01/23 03:40:07;;;;;;;30.08;12.75;;;1.40;67.20;;;;;;5032088;28;20061;-71
2022/01/23 03:42:36;;;;;;;27.75;12.90;;;1.50;67.20;;;;;;5010112;28;20529;-72
2022/01/23 03:49:30;;;;;;;26.50;11.93;;;1.50;67.00;;;;;;5016725;28;20053;-71
2022/01/23 03:50:59;;;;;;;27.58;12.48;;;1.60;67.10;;;;;;5014371;28;20120;-71
2022/01/23 03:53:25;;;;;;;33.42;13.65;;;1.60;67.10;;;;;;5012541;28;20069;-71
2022/01/23 03:55:53;;;;;;;24.38;13.00;;;1.60;67.10;;;;;;5014212;28;20053;-71
2022/01/23 03:58:19;;;;;;;23.88;12.52;;;1.60;67.30;;;;;;5024007;28;20087;-71
2022/01/23 04:00:45;;;;;;;26.58;13.93;;;1.50;67.40;;;;;;5029007;28;20041;-72
2022/01/23 04:03:12;;;;;;;22.23;10.65;;;1.50;67.50;;;;;;5018489;28;20047;-72
2022/01/23 04:05:38;;;;;;;26.70;11.80;;;1.40;67.50;;;;;;5029162;28;20049;-71
2022/01/23 04:08:05;;;;;;;23.15;11.20;;;1.50;67.60;;;;;;5018539;28;20101;-71
2022/01/23 04:10:31;;;;;;;28.08;12.35;;;1.40;67.50;;;;;;4996110;28;20049;-71
2022/01/23 04:13:09;;;;;;;25.42;12.48;;;1.40;67.50;;;;;;4996095;28;20038;-71
2022/01/23 04:15:46;;;;;;;26.75;11.75;;;1.40;67.60;;;;;;5025731;28;20091;-72
2022/01/23 05:01:16;;;;;;;21.75;8.77;;;1.20;69.00;;;;;;5021083;28;20041;-72
2022/01/23 05:04:07;;;;;;;19.42;9.35;;;1.20;69.00;;;;;;5015709;28;20453;-71
2022/01/23 05:06:38;;;;;;;17.85;8.90;;;1.20;69.00;;;;;;5016054;28;20501;-71
2022/01/23 05:09:06;;;;;;;17.88;8.73;;;1.20;69.20;;;;;;5011903;28;20056;-72
2022/01/23 05:11:33;;;;;;;15.20;8.68;;;1.20;69.10;;;;;;5025660;28;20056;-72
2022/01/23 05:14:02;;;;;;;;;;;1.20;69.10;;;;;;5027772;28;20041;-72
2022/01/23 05:16:31;;;;;;;17.15;7.75;;;1.30;68.80;;;;;;5014685;28;19928;-72
2022/01/23 05:18:58;;;;;;;17.55;8.10;;;1.40;68.60;;;;;;5011158;28;20096;-71
2022/01/23 05:23:50;;;;;;;20.20;8.60;;;1.40;68.70;;;;;;5031186;28;20034;-71
2022/01/23 05:26:16;;;;;;;19.20;8.07;;;1.50;68.60;;;;;;5012543;28;20129;-72
2022/01/23 05:28:42;;;;;;;20.73;8.88;;;1.60;68.50;;;;;;5010982;28;20034;-71
2022/01/23 05:31:09;;;;;;;16.63;7.30;;;1.60;68.40;;;;;;5028631;28;20052;-71
2022/01/23 05:33:35;;;;;;;13.45;7.10;;;1.60;68.30;;;;;;5013699;28;20398;-72
2022/01/23 05:36:01;;;;;;;16.15;7.38;;;1.70;68.40;;;;;;5012939;28;20030;-72
2022/01/23 05:38:27;;;;;;;;;;;1.70;68.20;;;;;;5020144;28;20033;-72
2022/01/23 05:40:56;;;;;;;16.73;7.75;;;1.70;68.20;;;;;;5013465;28;20296;-71
2022/01/23 05:43:24;;;;;;;24.10;12.20;;;1.70;68.10;;;;;;5010999;28;20046;-72
2022/01/23 05:45:51;;;;;;;27.80;13.48;;;1.80;68.00;;;;;;5026046;28;20061;-71
2022/01/23 05:48:18;;;;;;;33.85;14.27;;;1.80;68.00;;;;;;5013575;28;20038;-72
2022/01/23 05:50:46;;;;;;;32.50;16.25;;;1.80;67.90;;;;;;5011607;28;20196;-72
2022/01/23 05:53:13;;;;;;;36.78;17.55;;;1.80;67.90;;;;;;5025858;28;20531;-72
2022/01/23 05:55:39;;;;;;;;;;;1.90;68.10;;;;;;5012853;28;20088;-72
2022/01/23 05:58:05;;;;;;;27.17;12.45;;;1.90;68.10;;;;;;5025832;28;20328;-72
2022/01/23 06:00:31;;;;;;;19.70;9.93;;;1.80;68.00;;;;;;5026846;28;20109;-72
2022/01/23 06:02:57;;;;;;;18.05;9.20;;;1.80;68.10;;;;;;5010675;28;20033;-72
2022/01/23 06:05:23;;;;;;;22.67;11.98;;;1.80;68.20;;;;;;5023554;28;20470;-71
2022/01/23 06:07:50;;;;;;;26.83;13.60;;;1.90;68.40;;;;;;5030452;28;20449;-72
2022/01/23 06:10:24;;;;;;;23.23;12.38;;;1.90;69.10;;;;;;5011618;28;20045;-72
2022/01/23 06:12:51;;;;;;;36.97;15.88;;;2.00;68.00;;;;;;5022147;28;20061;-72
2022/01/23 06:15:18;;;;;;;29.85;14.13;;;2.00;68.10;;;;;;5026300;28;20030;-71
2022/01/23 06:17:45;;;;;;;28.70;12.27;;;1.90;68.00;;;;;;5023993;28;20041;-72
2022/01/23 06:20:13;;;;;;;28.55;13.70;;;2.00;68.00;;;;;;5011164;28;20089;-71
2022/01/23 06:22:42;;;;;;;33.28;16.67;;;2.00;67.50;;;;;;5026603;28;20384;-71
2022/01/23 06:25:12;;;;;;;32.28;17.90;;;2.00;67.50;;;;;;5010070;28;20040;-72
2022/01/23 06:27:38;;;;;;;31.60;16.75;;;2.00;67.90;;;;;;5019132;28;20041;-72
2022/01/23 06:30:05;;;;;;;36.00;17.98;;;2.10;68.10;;;;;;5026164;28;20116;-71
2022/01/23 06:32:31;;;;;;;40.60;16.90;;;2.00;67.80;;;;;;5009808;28;20140;-72
2022/01/23 06:34:57;;;;;;;44.13;17.50;;;2.10;68.10;;;;;;5011219;28;20042;-72
2022/01/23 06:37:23;;;;;;;39.53;17.58;;;2.10;67.40;;;;;;5011636;28;20096;-72
2022/01/23 06:39:50;;;;;;;40.28;18.60;;;2.10;68.00;;;;;;5011271;28;20402;-72
2022/01/23 06:42:16;;;;;;;45.40;20.88;;;2.10;67.90;;;;;;5028980;28;20101;-71
2022/01/23 06:44:43;;;;;;;60.80;22.00;;;2.10;67.90;;;;;;5026528;28;20029;-71
2022/01/23 06:47:09;;;;;;;53.80;23.38;;;2.10;67.90;;;;;;5019714;28;20042;-72
2022/01/23 06:49:35;;;;;;;53.80;23.95;;;2.10;67.90;;;;;;5009919;28;20506;-71
2022/01/23 06:52:01;;;;;;;61.15;23.70;;;2.10;68.00;;;;;;5026183;28;20034;-72
2022/01/23 06:54:28;;;;;;;43.28;20.90;;;2.10;68.10;;;;;;5010605;28;20033;-72
2022/01/23 06:56:55;;;;;;;42.65;20.60;;;2.10;67.80;;;;;;5026082;28;20395;-71
2022/01/23 06:59:21;;;;;;;42.10;18.88;;;2.10;67.90;;;;;;5011312;28;20133;-71
2022/01/23 07:01:47;;;;;;;44.17;21.27;;;2.10;67.80;;;;;;5016824;28;20121;-71
2022/01/23 07:04:13;;;;;;;58.42;25.38;;;2.20;68.70;;;;;;5009682;28;20133;-71
2022/01/23 07:06:39;;;;;;;;;;;2.20;67.00;;;;;;5026462;28;20030;-72
2022/01/23 07:09:06;;;;;;;53.42;24.55;;;2.20;67.50;;;;;;5010323;28;19918;-72
2022/01/23 07:11:31;;;;;;;;;;;2.20;67.30;;;;;;5023291;28;20092;-73
2022/01/23 07:13:58;;;;;;;66.57;28.42;;;2.30;67.50;;;;;;5027466;28;19921;-71
2022/01/23 07:16:24;;;;;;;56.67;27.55;;;2.30;67.30;;;;;;5010790;28;20513;-71
2022/01/23 07:18:50;;;;;;;59.65;27.50;;;2.30;67.30;;;;;;5010649;28;20038;-71
2022/01/23 07:21:16;;;;;;;51.90;26.92;;;2.30;67.30;;;;;;5031724;28;20099;-71
2022/01/23 07:23:49;;;;;;;58.97;25.30;;;2.30;67.40;;;;;;5012930;28;20499;-72
2022/01/23 07:26:16;;;;;;;50.90;26.48;;;2.40;67.20;;;;;;5013160;28;20087;-71
2022/01/23 07:28:44;;;;;;;59.85;29.60;;;2.40;67.10;;;;;;5012705;28;20404;-72
2022/01/23 07:31:11;;;;;;;89.07;36.42;;;2.50;67.30;;;;;;5018255;28;20037;-72
2022/01/23 07:33:38;;;;;;;76.85;34.28;;;2.50;67.30;;;;;;5030324;28;20125;-71
2022/01/23 07:36:05;;;;;;;87.63;32.92;;;2.50;67.10;;;;;;5030349;28;20022;-72
2022/01/23 07:38:31;;;;;;;67.43;29.83;;;2.60;67.10;;;;;;5028429;28;20036;-71
2022/01/23 07:40:58;;;;;;;66.75;27.13;;;2.60;67.20;;;;;;5039908;28;20054;-71
2022/01/23 07:43:24;;;;;;;63.55;30.98;;;2.60;67.10;;;;;;5029526;28;20033;-72
2022/01/23 07:45:51;;;;;;;60.30;29.08;;;2.60;67.30;;;;;;5031333;28;20125;-71
2022/01/23 07:48:17;;;;;;;88.72;34.67;;;2.60;67.30;;;;;;5016275;28;20022;-71
2022/01/23 07:50:43;;;;;;;128.48;41.22;;;2.70;67.10;;;;;;5018658;28;20030;-72
2022/01/23 07:53:09;;;;;;;;;;;2.70;67.00;;;;;;5013163;28;20042;-71
2022/01/23 07:55:35;;;;;;;118.43;47.05;;;2.80;66.90;;;;;;5029618;28;20300;-71
2022/01/23 07:58:12;;;;;;;142.52;55.00;;;2.80;66.70;;;;;;5014011;28;20162;-72
2022/01/23 08:00:39;;;;;;;125.45;51.25;;;2.80;66.70;;;;;;5028049;28;20454;-71
2022/01/23 08:03:05;;;;;;;108.88;45.78;;;2.80;66.60;;;;;;5029495;28;20482;-71
2022/01/23 08:05:31;;;;;;;83.57;35.50;;;2.80;66.70;;;;;;5029463;28;20164;-72
2022/01/23 08:07:58;;;;;;;64.63;29.67;;;2.80;66.80;;;;;;5019585;28;20080;-71
2022/01/23 08:10:24;;;;;;;36.08;19.50;;;2.80;66.90;;;;;;5026829;28;20038;-71
2022/01/23 08:12:50;;;;;;;40.15;18.30;;;2.90;67.00;;;;;;5011486;28;20053;-72
2022/01/23 08:15:16;;;;;;;29.88;15.75;;;2.90;66.90;;;;;;5017742;28;20064;-71
2022/01/23 08:17:42;;;;;;;48.67;18.17;;;2.90;67.00;;;;;;5045245;28;20068;-72
2022/01/23 08:20:09;;;;;;;72.53;25.48;;;2.90;66.90;;;;;;5027917;28;20034;-72
2022/01/23 08:22:35;;;;;;;159.85;44.67;;;2.90;66.90;;;;;;5027805;28;20042;-72
2022/01/23 08:25:03;;;;;;;;;;;2.90;66.40;;;;;;5029157;28;20232;-71
2022/01/23 08:27:29;;;;;;;;;;;2.90;66.80;;;;;;5027332;28;19921;-72
2022/01/23 08:29:56;;;;;;;32.08;14.43;;;3.00;66.80;;;;;;5026959;28;19924;-72
2022/01/23 08:32:22;;;;;;;25.25;12.85;;;3.00;66.40;;;;;;5028949;28;20441;-71
2022/01/23 08:34:48;;;;;;;26.90;12.15;;;3.00;66.70;;;;;;5013565;28;20030;-72
2022/01/23 08:37:15;;;;;;;21.45;11.15;;;3.00;66.60;;;;;;5014756;28;20037;-73
2022/01/23 08:39:41;;;;;;;33.50;14.40;;;3.10;66.60;;;;;;5012895;28;20103;-71
2022/01/23 08:42:12;;;;;;;234.30;53.47;;;3.10;66.60;;;;;;5014148;28;20057;-72
2022/01/23 08:44:39;;;;;;;58.70;20.45;;;3.10;66.40;;;;;;5012032;28;20403;-72
2022/01/23 08:47:07;;;;;;;41.92;17.60;;;3.20;66.20;;;;;;5025987;28;20041;-72
2022/01/23 08:49:34;;;;;;;109.18;31.52;;;3.30;66.20;;;;;;5030733;28;20039;-72
2022/01/23 08:52:00;;;;;;;389.17;89.45;;;3.30;66.10;;;;;;5027066;28;20131;-72
2022/01/23 08:54:27;;;;;;;;;;;3.30;66.30;;;;;;5010953;28;20033;-72
2022/01/23 08:56:54;;;;;;;39.10;19.85;;;3.30;66.20;;;;;;5015938;28;20428;-72
2022/01/23 08:59:20;;;;;;;38.35;18.77;;;3.30;66.20;;;;;;5025371;28;20034;-72
2022/01/23 09:01:47;;;;;;;;;;;3.40;66.30;;;;;;5012266;28;20376;-72
2022/01/23 09:04:15;;;;;;;40.33;17.83;;;3.50;66.10;;;;;;5014390;28;19927;-72
2022/01/23 09:07:00;;;;;;;52.85;25.65;;;3.50;65.60;;;;;;5008404;28;20038;-71
2022/01/23 09:09:31;;;;;;;63.97;29.05;;;3.60;65.20;;;;;;5010582;28;20034;-72
2022/01/23 09:12:06;;;;;;;53.72;26.13;;;3.60;65.80;;;;;;5011025;28;20042;-71
2022/01/23 09:14:33;;;;;;;45.67;20.88;;;3.70;65.70;;;;;;5034109;28;20037;-72
2022/01/23 09:17:00;;;;;;;31.83;17.60;;;3.70;65.10;;;;;;5011324;28;20037;-72
2022/01/23 09:19:28;;;;;;;29.38;15.23;;;3.80;65.50;;;;;;5020122;28;20030;-72
2022/01/23 09:21:55;;;;;;;23.13;12.00;;;3.90;65.30;;;;;;5001033;28;20498;-72
2022/01/23 09:24:23;;;;;;;23.10;10.85;;;4.00;65.10;;;;;;5017708;28;20080;-73
2022/01/23 09:26:53;;;;;;;25.92;13.75;;;4.00;65.00;;;;;;5014538;28;20125;-73
2022/01/23 09:29:41;;;;;;;37.00;18.55;;;4.10;65.10;;;;;;5012563;28;20114;-72
2022/01/23 09:32:25;;;;;;;31.85;16.10;;;4.10;65.10;;;;;;5012416;28;20072;-73
2022/01/23 09:34:52;;;;;;;25.02;13.57;;;4.20;64.90;;;;;;5025555;28;20421;-73
2022/01/23 09:37:19;;;;;;;;;;;4.30;64.70;;;;;;5028202;28;20099;-72
2022/01/23 09:39:49;;;;;;;21.65;11.27;;;4.30;64.70;;;;;;5014384;28;19921;-72
2022/01/23 09:42:56;;;;;;;17.90;10.77;;;4.30;64.40;;;;;;5009976;28;20559;-72
2022/01/23 09:45:24;;;;;;;18.65;10.15;;;4.40;64.30;;;;;;5026346;28;20529;-72
2022/01/23 09:50:45;;;;;;;22.25;10.63;;;4.30;64.10;;;;;;5014072;28;20037;-72
2022/01/23 09:53:12;;;;;;;25.30;11.10;;;4.30;64.20;;;;;;5021548;28;20041;-72
2022/01/23 09:55:44;;;;;;;22.92;11.65;;;4.30;64.10;;;;;;5016338;28;20036;-72
2022/01/23 09:58:14;;;;;;;25.60;12.88;;;4.40;64.10;;;;;;5021270;28;20044;-72
2022/01/23 10:00:41;;;;;;;27.70;14.27;;;4.40;64.00;;;;;;5018219;28;20038;-72
2022/01/23 10:03:07;;;;;;;30.75;16.10;;;4.40;63.90;;;;;;5010942;28;20067;-72
2022/01/23 10:05:33;;;;;;;36.80;17.88;;;4.40;63.40;;;;;;5005541;28;20042;-72
2022/01/23 10:08:00;;;;;;;;;;;4.40;63.10;;;;;;5011018;28;20042;-72
2022/01/23 10:10:29;;;;;;;47.25;18.85;;;4.60;63.80;;;;;;5018229;28;20352;-72
2022/01/23 10:12:59;;;;;;;34.58;18.13;;;4.60;62.80;;;;;;5008163;28;20061;-71
2022/01/23 10:15:46;;;;;;;38.63;18.75;;;4.60;63.00;;;;;;5043048;28;20025;-72
2022/01/23 10:18:12;;;;;;;40.30;17.35;;;4.60;63.10;;;;;;5011949;28;20030;-72
2022/01/23 10:20:39;;;;;;;36.13;18.45;;;4.60;63.00;;;;;;5010621;28;20133;-73
2022/01/23 10:23:05;;;;;;;;;;;4.60;62.90;;;;;;5012131;28;20037;-72
2022/01/23 10:25:33;;;;;;;31.92;17.27;;;4.70;63.10;;;;;;5011450;28;19979;-72
2022/01/23 10:28:04;;;;;;;43.53;18.17;;;4.70;62.70;;;;;;5040224;28;20061;-73
2022/01/23 10:30:44;;;;;;;36.08;17.67;;;4.80;62.50;;;;;;5028838;28;20034;-73
2022/01/23 10:33:21;;;;;;;42.92;21.85;;;4.80;62.40;;;;;;5015042;28;20479;-72
2022/01/23 10:36:14;;;;;;;25.98;14.73;;;4.80;62.20;;;;;;5021771;28;20042;-72
2022/01/23 10:39:03;;;;;;;28.58;15.73;;;4.70;61.90;;;;;;5026687;28;20091;-72
2022/01/23 10:49:56;;;;;;;17.60;8.27;;;4.80;60.80;;;;;;5022088;28;20491;-71
2022/01/23 10:52:43;;;;;;;16.17;7.63;;;4.80;60.60;;;;;;5011645;28;20138;-72
2022/01/23 10:55:12;;;;;;;29.48;13.13;;;4.80;60.50;;;;;;5025363;28;20041;-72
2022/01/23 10:57:45;;;;;;;24.70;11.73;;;4.80;60.50;;;;;;5031420;28;20065;-73
2022/01/23 11:00:32;;;;;;;19.25;10.77;;;4.80;60.20;;;;;;5015186;28;20030;-72
2022/01/23 11:03:12;;;;;;;15.07;6.90;;;4.80;60.00;;;;;;5030411;28;20045;-72
2022/01/23 11:05:40;;;;;;;21.83;9.32;;;4.80;59.80;;;;;;5030490;28;20052;-73
2022/01/23 11:08:27;;;;;;;17.30;7.47;;;4.80;59.70;;;;;;5013821;28;20154;-72
2022/01/23 11:11:14;;;;;;;36.10;11.98;;;4.80;59.50;;;;;;5009968;28;20041;-72
2022/01/23 11:19:40;;;;;;;9.82;4.38;;;4.60;59.00;;;;;;5014734;28;20461;-72
2022/01/23 11:22:07;;;;;;;8.80;4.65;;;4.60;58.60;;;;;;5025795;28;20479;-73
2022/01/23 11:24:57;;;;;;;11.60;4.10;;;4.50;58.60;;;;;;5009572;28;20034;-72
2022/01/23 11:27:23;;;;;;;8.02;4.47;;;4.50;58.50;;;;;;5011621;28;20045;-74
2022/01/23 11:30:46;;;;;;;10.05;5.45;;;4.60;58.70;;;;;;5010210;28;20064;-72
2022/01/23 11:33:17;;;;;;;6.90;2.85;;;4.50;58.30;;;;;;5019942;28;20038;-72
2022/01/23 11:35:45;;;;;;;7.15;2.80;;;4.40;57.70;;;;;;5007460;28;20133;-72
2022/01/23 11:55:48;;;;;;;6.55;3.03;;;5.00;56.90;;;;;;5021940;28;20056;-73
2022/01/23 11:58:35;;;;;;;8.05;3.25;;;5.00;57.10;;;;;;5026899;28;20041;-72
2022/01/23 12:04:08;;;;;;;8.52;4.00;;;4.90;57.00;;;;;;5010720;28;20058;-72
2022/01/23 12:06:39;;;;;;;;;;;4.80;56.80;;;;;;5025384;28;20033;-72
2022/01/23 12:09:24;;;;;;;8.43;4.05;;;4.80;56.50;;;;;;5010975;28;19963;-72
2022/01/23 12:12:37;;;;;;;8.90;3.95;;;4.80;56.80;;;;;;5012394;28;20037;-73
2022/01/23 12:18:36;;;;;;;10.15;4.20;;;5.00;56.80;;;;;;5024445;28;20056;-73
2022/01/23 12:21:02;;;;;;;12.88;4.50;;;4.90;57.10;;;;;;5015859;28;20100;-72
2022/01/23 12:24:09;;;;;;;8.60;4.45;;;4.90;57.20;;;;;;5020300;28;20046;-73
2022/01/23 12:26:35;;;;;;;11.80;5.70;;;4.90;57.40;;;;;;5034909;28;20046;-71
2022/01/23 12:29:23;;;;;;;10.07;4.75;;;4.80;57.40;;;;;;5041653;28;20521;-72
2022/01/23 12:32:10;;;;;;;9.18;3.60;;;4.80;57.50;;;;;;5033137;28;20049;-73
2022/01/23 12:35:15;;;;;;;9.20;4.35;;;4.80;57.30;;;;;;5021778;28;20045;-73
2022/01/23 12:38:00;;;;;;;8.70;3.97;;;4.70;57.50;;;;;;5006075;28;20037;-73
2022/01/23 12:40:48;;;;;;;9.27;4.45;;;4.70;57.70;;;;;;5027828;28;20092;-73
2022/01/23 12:43:37;;;;;;;10.23;4.10;;;4.60;58.00;;;;;;5013586;28;20049;-73
2022/01/23 12:46:07;;;;;;;10.98;5.65;;;4.70;58.10;;;;;;5009991;28;20046;-72
2022/01/23 12:48:52;;;;;;;10.70;4.25;;;4.70;57.90;;;;;;5043692;28;20045;-73
2022/01/23 12:51:18;;;;;;;11.20;4.63;;;4.70;57.70;;;;;;4984171;28;1251603;-72
2022/01/23 12:53:47;;;;;;;9.50;3.67;;;4.70;58.20;;;;;;5015961;28;20450;-72
2022/01/23 12:56:51;;;;;;;13.90;4.72;;;4.70;58.10;;;;;;5017985;28;20045;-73
2022/01/23 12:59:26;;;;;;;8.75;4.20;;;4.80;57.70;;;;;;5024712;28;20033;-72
2022/01/23 13:02:00;;;;;;;10.00;3.92;;;4.70;57.50;;;;;;5023865;28;20086;-72
2022/01/23 13:04:51;;;;;;;6.45;2.72;;;4.80;57.60;;;;;;5023031;28;20044;-72
2022/01/23 13:13:10;;;;;;;9.27;4.03;;;4.60;57.70;;;;;;5028214;28;20055;-72
2022/01/23 13:30:11;;;;;;;10.20;4.90;;;4.40;57.90;;;;;;5011080;28;20128;-73
2022/01/23 13:32:45;;;;;;;7.43;3.35;;;4.30;58.00;;;;;;5021680;28;20055;-72
2022/01/23 13:35:15;;;;;;;14.93;3.90;;;4.30;58.00;;;;;;5012011;28;20038;-72
2022/01/23 13:37:45;;;;;;;11.43;4.78;;;4.30;58.10;;;;;;5013170;28;20030;-73
2022/01/23 13:40:39;;;;;;;8.48;3.33;;;4.30;58.30;;;;;;5012174;28;20073;-73
2022/01/23 13:52:20;;;;;;;11.80;5.65;;;4.40;58.50;;;;;;5025001;28;20111;-72
2022/01/23 13:57:40;;;;;;;10.93;4.63;;;4.40;58.30;;;;;;5023494;28;20049;-73
2022/01/23 14:02:56;;;;;;;8.63;3.92;;;4.30;58.50;;;;;;5010820;28;20552;-71
2022/01/23 14:05:31;;;;;;;9.57;4.20;;;4.30;58.50;;;;;;5021284;28;20042;-72
2022/01/23 14:08:19;;;;;;;8.57;3.28;;;4.20;58.30;;;;;;5008252;28;20379;-72
2022/01/23 14:10:45;;;;;;;9.85;3.50;;;4.30;58.50;;;;;;5011408;28;20380;-72
2022/01/23 14:13:16;;;;;;;8.93;4.35;;;4.20;58.50;;;;;;5010455;28;20117;-72
2022/01/23 14:15:55;;;;;;;10.25;5.22;;;4.20;58.40;;;;;;5021643;28;20410;-72
2022/01/23 14:18:40;;;;;;;13.70;5.90;;;4.20;58.50;;;;;;5007372;28;20026;-73
2022/01/23 14:23:55;;;;;;;10.52;5.22;;;4.20;58.50;;;;;;5024418;28;20395;-72
2022/01/23 14:26:22;;;;;;;10.25;4.72;;;4.20;58.30;;;;;;5016547;28;20053;-73
2022/01/23 14:28:51;;;;;;;8.65;3.83;;;4.20;58.40;;;;;;5009722;28;20041;-72
2022/01/23 14:31:22;;;;;;;13.07;4.88;;;4.10;58.00;;;;;;5011305;28;20841;-73
2022/01/23 14:33:56;;;;;;;10.35;4.45;;;4.10;58.40;;;;;;5037741;28;20130;-72
2022/01/23 14:36:42;;;;;;;12.05;5.05;;;4.10;58.50;;;;;;5009894;28;20080;-73
2022/01/23 14:39:26;;;;;;;9.95;4.88;;;4.10;58.70;;;;;;5015583;28;20109;-72
2022/01/23 14:41:52;;;;;;;14.90;5.18;;;4.10;58.80;;;;;;5027298;28;20453;-72
2022/01/23 14:44:40;;;;;;;10.43;4.90;;;4.10;58.70;;;;;;5018784;28;20117;-72
2022/01/23 14:47:09;;;;;;;9.48;4.55;;;4.10;58.60;;;;;;5015904;28;20049;-72
2022/01/23 14:49:37;;;;;;;8.98;4.45;;;4.00;58.50;;;;;;5022559;28;20068;-72
2022/01/23 14:52:09;;;;;;;14.45;5.32;;;4.00;58.10;;;;;;5015453;28;20038;-72
2022/01/23 14:54:36;;;;;;;12.35;5.50;;;4.10;58.60;;;;;;5023387;28;20041;-72
2022/01/23 14:57:07;;;;;;;11.20;5.43;;;4.00;58.60;;;;;;5022893;28;20079;-72
2022/01/23 14:59:36;;;;;;;11.52;6.35;;;4.00;58.60;;;;;;5026027;28;20188;-72
2022/01/23 15:02:06;;;;;;;10.93;4.50;;;4.00;58.70;;;;;;5008185;28;20487;-72
2022/01/23 15:04:51;;;;;;;12.50;4.68;;;4.00;58.70;;;;;;5018884;28;20128;-73
2022/01/23 15:07:18;;;;;;;9.90;4.78;;;4.00;58.90;;;;;;5025278;28;20520;-73
2022/01/23 15:10:05;;;;;;;10.48;4.97;;;4.00;58.80;;;;;;5026072;28;20041;-73
2022/01/23 15:12:31;;;;;;;13.32;6.07;;;4.00;59.00;;;;;;5009469;28;20450;-73
2022/01/23 15:14:58;;;;;;;14.55;5.55;;;4.00;58.90;;;;;;5026453;28;20037;-72
2022/01/23 15:17:25;;;;;;;13.85;7.15;;;4.00;58.90;;;;;;5012177;28;20544;-72
2022/01/23 15:19:53;;;;;;;14.32;6.50;;;4.00;58.90;;;;;;5025205;28;20033;-72
2022/01/23 15:22:20;;;;;;;11.75;5.80;;;4.00;58.80;;;;;;5010003;28;20037;-72
2022/01/23 15:24:47;;;;;;;15.02;6.25;;;4.00;58.80;;;;;;5024994;28;20541;-73
2022/01/23 15:27:14;;;;;;;12.00;5.93;;;3.90;58.50;;;;;;5026412;28;20442;-72
2022/01/23 15:29:41;;;;;;;12.18;6.05;;;3.90;59.00;;;;;;5008610;28;20038;-72
2022/01/23 15:32:08;;;;;;;;;;;3.90;58.60;;;;;;5028035;28;20452;-73
2022/01/23 15:34:36;;;;;;;15.75;5.93;;;3.80;59.00;;;;;;5009434;28;20403;-71
2022/01/23 15:37:03;;;;;;;14.35;6.60;;;3.80;59.10;;;;;;4994991;28;20555;-72
2022/01/23 15:39:31;;;;;;;18.92;6.30;;;3.80;59.10;;;;;;5023512;28;20423;-73
2022/01/23 15:41:58;;;;;;;21.73;11.27;;;3.80;59.20;;;;;;5015510;28;20132;-72
2022/01/23 15:44:26;;;;;;;21.13;10.43;;;3.80;59.30;;;;;;5030621;28;20486;-72
2022/01/23 15:46:52;;;;;;;17.42;7.88;;;3.80;59.40;;;;;;5028824;28;20037;-72
2022/01/23 15:49:19;;;;;;;21.40;9.27;;;3.90;59.40;;;;;;5030475;28;20103;-73
2022/01/23 15:51:47;;;;;;;15.88;7.70;;;3.80;59.10;;;;;;5027204;28;20049;-73
2022/01/23 15:54:17;;;;;;;16.50;8.48;;;3.80;59.30;;;;;;5018211;28;20021;-73
2022/01/23 15:56:47;;;;;;;15.30;8.50;;;3.80;59.30;;;;;;5025596;28;20038;-73
2022/01/23 15:59:15;;;;;;;23.10;11.75;;;3.80;59.40;;;;;;5013992;28;20037;-72
2022/01/23 16:01:42;;;;;;;26.52;12.95;;;3.80;59.20;;;;;;4998855;28;20398;-73
2022/01/23 16:04:08;;;;;;;21.60;10.27;;;3.70;59.40;;;;;;5024615;28;20085;-72
2022/01/23 16:06:34;;;;;;;;;;;3.70;59.60;;;;;;5018938;28;20044;-72
2022/01/23 16:09:01;;;;;;;14.25;7.00;;;3.70;59.60;;;;;;5026011;28;19921;-72
2022/01/23 16:11:27;;;;;;;;;;;3.60;59.50;;;;;;5023151;28;20038;-73
2022/01/23 16:13:53;;;;;;;14.52;8.00;;;3.50;59.90;;;;;;5014320;28;19967;-71
2022/01/23 16:16:19;;;;;;;16.50;9.18;;;3.50;60.00;;;;;;5013189;28;20400;-73
2022/01/23 16:18:46;;;;;;;18.35;9.65;;;3.50;60.00;;;;;;5027374;28;20069;-72
2022/01/23 16:21:12;;;;;;;16.98;7.55;;;3.40;60.00;;;;;;5018581;28;20072;-72
2022/01/23 16:23:38;;;;;;;;;;;3.40;60.20;;;;;;5018519;28;20037;-72
2022/01/23 16:26:04;;;;;;;14.30;7.05;;;3.30;60.40;;;;;;5022468;28;20445;-73
2022/01/23 16:28:31;;;;;;;13.88;6.63;;;3.30;60.30;;;;;;5013031;28;20042;-72
2022/01/23 16:30:59;;;;;;;15.95;8.15;;;3.30;60.50;;;;;;5023814;28;20038;-72
2022/01/23 16:33:26;;;;;;;16.42;8.07;;;3.20;60.50;;;;;;5040759;28;20026;-72
2022/01/23 16:35:54;;;;;;;17.42;7.85;;;3.20;60.70;;;;;;5018282;28;20029;-72
2022/01/23 16:38:20;;;;;;;16.38;8.52;;;3.20;60.60;;;;;;5029099;28;20037;-72
2022/01/23 16:40:48;;;;;;;16.10;8.32;;;3.30;60.00;;;;;;5022113;28;20491;-72
2022/01/23 16:43:16;;;;;;;18.30;9.13;;;3.30;60.40;;;;;;5018700;28;20041;-72
2022/01/23 16:45:42;;;;;;;20.63;9.25;;;3.40;60.20;;;;;;5028379;28;20037;-72
2022/01/23 16:48:10;;;;;;;;;;;3.40;60.30;;;;;;5027731;28;20030;-72
2022/01/23 16:50:38;;;;;;;17.55;7.80;;;3.30;59.80;;;;;;5023162;28;19925;-72
2022/01/23 16:53:05;;;;;;;16.17;8.25;;;3.30;60.50;;;;;;5014031;28;20292;-72